createdAt,value
2019-01-06T00:02:25.109Z,5.80
2019-01-06T00:05:22.890Z,9.80
2019-01-06T00:08:09.658Z,7.67
2019-01-06T00:10:58.005Z,7.00
2019-01-06T00:13:44.600Z,6.67
2019-01-06T00:16:38.950Z,7.00
2019-01-06T00:19:25.897Z,4.73
2019-01-06T00:22:32.146Z,6.10
2019-01-06T00:25:19.241Z,4.77
2019-01-06T00:28:01.438Z,6.67
2019-01-06T00:31:01.618Z,4.90
2019-01-06T00:33:56.306Z,6.10
2019-01-06T00:36:50.258Z,6.00
2019-01-06T00:39:37.521Z,4.70
2019-01-06T00:42:24.213Z,7.47
2019-01-06T00:45:18.040Z,6.17
2019-01-06T00:48:18.712Z,6.03
2019-01-06T00:51:06.120Z,5.47
2019-01-06T00:53:58.068Z,6.00
2019-01-06T00:56:56.631Z,5.67
2019-01-06T00:59:42.390Z,5.57
2019-01-06T01:02:34.219Z,4.90
2019-01-06T01:05:28.397Z,4.43
2019-01-06T01:08:10.327Z,4.17
2019-01-06T01:10:57.151Z,3.63
2019-01-06T01:13:38.732Z,4.10
2019-01-06T01:16:31.854Z,4.63
2019-01-06T01:19:17.152Z,4.17
2019-01-06T01:21:59.181Z,3.60
2019-01-06T01:24:45.886Z,3.77
2019-01-06T01:27:26.135Z,6.43
2019-01-06T01:30:35.145Z,5.43
2019-01-06T01:33:21.742Z,4.43
2019-01-06T01:36:08.288Z,4.07
2019-01-06T01:39:02.467Z,4.23
2019-01-06T01:41:54.290Z,3.87
2019-01-06T01:44:41.012Z,3.13
2019-01-06T01:47:29.349Z,4.27
2019-01-06T01:50:20.263Z,3.50
2019-01-06T01:53:07.205Z,4.80
2019-01-06T01:55:55.612Z,4.17
2019-01-06T01:58:48.476Z,3.83
2019-01-06T02:01:28.841Z,4.43
2019-01-06T02:04:15.588Z,3.23
2019-01-06T02:07:07.257Z,3.30
2019-01-06T02:10:14.264Z,4.30
2019-01-06T02:12:58.585Z,3.83
2019-01-06T02:15:45.592Z,3.87
2019-01-06T02:18:24.320Z,3.40
2019-01-06T02:21:22.400Z,3.63
2019-01-06T02:24:25.618Z,5.10
2019-01-06T02:27:12.645Z,3.60
2019-01-06T02:29:55.741Z,3.20
2019-01-06T02:32:42.920Z,4.57
2019-01-06T02:35:39.837Z,4.00
2019-01-06T02:38:36.632Z,3.40
2019-01-06T02:41:23.212Z,4.43
2019-01-06T02:44:20.821Z,4.27
2019-01-06T02:47:09.141Z,4.17
2019-01-06T02:49:58.577Z,4.33
2019-01-06T02:52:45.725Z,2.93
2019-01-06T02:55:32.623Z,3.40
2019-01-06T02:58:20.609Z,3.73
2019-01-06T03:01:11.821Z,2.43
2019-01-06T03:03:50.559Z,2.90
2019-01-06T03:06:36.525Z,2.53
2019-01-06T03:09:24.719Z,2.87
2019-01-06T03:12:18.751Z,3.27
2019-01-06T03:15:03.631Z,2.73
2019-01-06T03:17:55.057Z,6.67
2019-01-06T03:20:43.452Z,4.33
2019-01-06T03:23:37.203Z,3.77
2019-01-06T03:26:28.118Z,4.20
2019-01-06T03:29:18.877Z,2.70
2019-01-06T03:32:09.582Z,2.83
2019-01-06T03:34:57.755Z,3.57
2019-01-06T03:37:44.653Z,3.53
2019-01-06T03:40:50.572Z,6.40
2019-01-06T03:43:37.352Z,4.70
2019-01-06T03:46:24.196Z,4.63
2019-01-06T03:49:09.939Z,3.87
2019-01-06T03:52:15.813Z,3.83
2019-01-06T03:54:57.266Z,5.57
2019-01-06T03:57:50.301Z,5.37
2019-01-06T04:00:36.416Z,3.20
2019-01-06T04:03:36.714Z,3.40
2019-01-06T04:06:35.231Z,6.33
2019-01-06T04:09:27.297Z,4.87
2019-01-06T04:12:21.473Z,4.40
2019-01-06T04:15:06.841Z,6.10
2019-01-06T04:17:51.388Z,5.20
2019-01-06T04:20:45.384Z,5.83
2019-01-06T04:23:35.783Z,4.60
2019-01-06T04:26:26.640Z,4.13
2019-01-06T04:29:21.789Z,6.50
2019-01-06T04:32:19.238Z,3.90
2019-01-06T04:35:06.226Z,5.10
2019-01-06T04:38:00.766Z,3.93
2019-01-06T04:40:48.110Z,5.47
2019-01-06T04:43:32.310Z,5.40
2019-01-06T04:46:17.201Z,5.60
2019-01-06T04:49:09.039Z,7.00
2019-01-06T04:51:51.834Z,4.23
2019-01-06T04:54:32.381Z,6.13
2019-01-06T04:57:19.340Z,5.23
2019-01-06T05:00:22.857Z,4.90
2019-01-06T05:03:29.144Z,4.20
2019-01-06T05:06:15.631Z,6.30
2019-01-06T05:09:09.901Z,5.43
2019-01-06T05:12:07.086Z,7.87
2019-01-06T05:15:04.071Z,5.97
2019-01-06T05:17:47.724Z,7.73
2019-01-06T05:20:30.997Z,6.03
2019-01-06T05:23:17.884Z,5.07
2019-01-06T05:26:14.886Z,5.23
2019-01-06T05:29:12.812Z,8.27
2019-01-06T05:31:59.586Z,5.77
2019-01-06T05:35:00.159Z,5.47
2019-01-06T05:37:43.330Z,5.17
2019-01-06T05:40:46.316Z,7.20
2019-01-06T05:43:23.107Z,3.60
2019-01-06T05:46:10.064Z,4.47
2019-01-06T05:48:57.324Z,4.27
2019-01-06T05:51:51.756Z,5.10
2019-01-06T05:54:31.761Z,4.67
2019-01-06T05:57:18.202Z,5.93
2019-01-06T06:00:09.186Z,6.77
2019-01-06T06:02:45.869Z,6.30
2019-01-06T06:05:30.640Z,6.90
2019-01-06T06:08:15.278Z,5.70
2019-01-06T06:10:54.585Z,5.73
2019-01-06T06:13:41.323Z,6.13
2019-01-06T06:16:31.233Z,3.30
2019-01-06T06:19:13.944Z,4.03
2019-01-06T06:22:11.942Z,9.37
2019-01-06T06:24:59.748Z,5.47
2019-01-06T06:27:46.453Z,5.27
2019-01-06T06:30:30.087Z,9.30
2019-01-06T06:33:24.519Z,6.87
2019-01-06T06:36:11.516Z,5.27
2019-01-06T06:39:02.455Z,4.97
2019-01-06T06:41:40.408Z,4.63
2019-01-06T06:44:37.797Z,4.17
2019-01-06T06:47:31.489Z,3.77
2019-01-06T06:50:16.434Z,3.20
2019-01-06T06:53:05.504Z,4.83
2019-01-06T06:55:49.012Z,5.03
2019-01-06T06:58:39.992Z,4.63
2019-01-06T07:01:50.368Z,4.23
2019-01-06T07:04:40.497Z,3.93
2019-01-06T07:07:24.241Z,4.80
2019-01-06T07:10:06.416Z,5.43
2019-01-06T07:13:06.382Z,6.03
2019-01-06T07:15:52.886Z,3.33
2019-01-06T07:18:41.393Z,4.37
2019-01-06T07:21:41.332Z,5.53
2019-01-06T07:24:27.977Z,5.30
2019-01-06T07:27:14.719Z,6.63
2019-01-06T07:30:06.241Z,6.00
2019-01-06T07:32:53.062Z,6.70
2019-01-06T07:35:40.886Z,5.50
2019-01-06T07:38:44.074Z,4.80
2019-01-06T07:41:29.505Z,6.00
2019-01-06T07:44:20.479Z,5.30
2019-01-06T07:47:05.141Z,5.13
2019-01-06T07:49:58.440Z,8.13
2019-01-06T07:52:53.861Z,4.80
2019-01-06T07:55:47.205Z,3.93
2019-01-06T07:58:26.973Z,4.50
2019-01-06T08:01:15.104Z,5.50
2019-01-06T08:04:01.789Z,3.23
2019-01-06T08:06:59.287Z,3.90
2019-01-06T08:09:46.384Z,4.00
2019-01-06T08:12:28.714Z,3.47
2019-01-06T08:15:09.357Z,5.73
2019-01-06T08:17:56.806Z,4.90
2019-01-06T08:20:43.929Z,5.00
2019-01-06T08:23:30.794Z,9.67
2019-01-06T08:26:13.251Z,12.60
2019-01-06T08:29:00.322Z,14.30
2019-01-06T08:31:47.784Z,7.07
2019-01-06T08:34:35.803Z,5.70
2019-01-06T08:37:36.249Z,7.10
2019-01-06T08:40:30.526Z,7.23
2019-01-06T08:43:24.642Z,7.10
2019-01-06T08:46:21.888Z,9.10
2019-01-06T08:49:06.921Z,7.27
2019-01-06T08:51:56.188Z,7.20
2019-01-06T08:54:42.837Z,7.63
2019-01-06T08:57:25.188Z,8.43
2019-01-06T09:00:12.187Z,5.93
2019-01-06T09:02:59.309Z,7.53
2019-01-06T09:05:51.025Z,5.73
2019-01-06T09:08:37.815Z,5.23
2019-01-06T09:11:26.267Z,14.53
2019-01-06T09:14:10.909Z,10.37
2019-01-06T09:16:59.781Z,9.90
2019-01-06T09:19:50.755Z,7.60
2019-01-06T09:22:37.993Z,6.67
2019-01-06T09:25:29.545Z,11.40
2019-01-06T09:28:16.836Z,8.33
2019-01-06T09:31:04.448Z,7.23
2019-01-06T09:33:52.303Z,8.87
2019-01-06T09:36:49.406Z,10.50
2019-01-06T09:39:35.456Z,8.77
2019-01-06T09:42:22.564Z,7.70
2019-01-06T09:45:09.933Z,7.37
2019-01-06T09:47:58.287Z,8.37
2019-01-06T09:50:45.369Z,6.90
2019-01-06T09:53:39.664Z,10.37
2019-01-06T09:56:33.874Z,7.67
2019-01-06T09:59:42.994Z,11.57
2019-01-06T10:02:49.592Z,9.73
2019-01-06T10:05:37.465Z,7.17
2019-01-06T10:08:25.966Z,7.53
2019-01-06T10:11:12.079Z,7.03
2019-01-06T10:14:09.444Z,6.63
2019-01-06T10:17:04.554Z,5.77
2019-01-06T10:19:52.074Z,7.67
2019-01-06T10:22:43.353Z,8.03
2019-01-06T10:25:43.930Z,5.73
2019-01-06T10:28:32.045Z,7.07
2019-01-06T10:31:19.864Z,5.20
2019-01-06T10:34:09.366Z,5.30
2019-01-06T10:36:56.220Z,6.07
2019-01-06T10:39:43.117Z,5.33
2019-01-06T10:42:37.004Z,4.70
2019-01-06T10:45:32.857Z,4.20
2019-01-06T10:48:14.552Z,5.30
2019-01-06T10:51:00.304Z,7.20
2019-01-06T10:53:49.395Z,6.77
2019-01-06T10:56:52.049Z,11.07
2019-01-06T10:59:46.165Z,10.17
2019-01-06T11:02:32.933Z,5.07
2019-01-06T11:05:20.118Z,5.37
2019-01-06T11:08:04.181Z,5.20
2019-01-06T11:11:01.842Z,4.10
2019-01-06T11:14:04.669Z,5.27
2019-01-06T11:17:11.488Z,4.80
2019-01-06T11:20:09.398Z,5.03
2019-01-06T11:23:15.446Z,7.13
2019-01-06T11:26:13.408Z,4.43
2019-01-06T11:29:10.702Z,5.20
2019-01-06T11:32:04.911Z,7.03
2019-01-06T11:34:59.648Z,5.10
2019-01-06T11:37:47.984Z,21.10
2019-01-06T11:40:51.301Z,12.90
2019-01-06T11:43:42.621Z,14.70
2019-01-06T11:46:33.817Z,13.87
2019-01-06T11:49:25.546Z,8.40
2019-01-06T11:52:05.803Z,7.87
2019-01-06T11:54:48.489Z,4.77
2019-01-06T11:57:35.653Z,5.80
2019-01-06T12:00:29.815Z,4.43
2019-01-06T12:03:18.676Z,6.37
2019-01-06T12:06:16.225Z,9.70
2019-01-06T12:09:06.558Z,3.93
2019-01-06T12:11:58.028Z,6.10
2019-01-06T12:14:44.887Z,4.83
2019-01-06T12:17:36.466Z,5.00
2019-01-06T12:20:15.316Z,5.33
2019-01-06T12:23:02.201Z,4.97
2019-01-06T12:25:45.565Z,5.10
2019-01-06T12:28:39.748Z,4.53
2019-01-06T12:31:30.824Z,9.70
2019-01-06T12:34:14.771Z,7.80
2019-01-06T12:37:15.581Z,6.07
2019-01-06T12:40:16.327Z,26.33
2019-01-06T12:43:12.957Z,4.50
2019-01-06T12:45:59.862Z,3.60
2019-01-06T12:48:46.760Z,4.87
2019-01-06T12:51:33.768Z,4.97
2019-01-06T12:54:24.165Z,5.10
2019-01-06T12:57:11.387Z,5.53
2019-01-06T12:59:58.672Z,4.43
2019-01-06T13:02:59.721Z,24.27
2019-01-06T13:05:46.442Z,5.93
2019-01-06T13:08:33.376Z,6.30
2019-01-06T13:11:25.413Z,4.57
2019-01-06T13:14:22.503Z,6.90
2019-01-06T13:17:05.679Z,4.00
2019-01-06T13:19:53.331Z,5.03
2019-01-06T13:22:53.200Z,3.37
2019-01-06T13:25:40.104Z,3.40
2019-01-06T13:28:27.309Z,4.80
2019-01-06T13:31:15.003Z,3.87
2019-01-06T13:33:59.425Z,3.10
2019-01-06T13:36:46.231Z,3.43
2019-01-06T13:39:38.276Z,4.13
2019-01-06T13:42:16.927Z,4.23
2019-01-06T13:45:03.729Z,4.47
2019-01-06T13:47:58.651Z,4.10
2019-01-06T13:50:45.233Z,4.07
2019-01-06T13:53:32.029Z,4.73
2019-01-06T13:56:35.780Z,6.00
2019-01-06T13:59:33.682Z,4.63
2019-01-06T14:02:20.416Z,4.80
2019-01-06T14:05:08.604Z,5.77
2019-01-06T14:07:55.834Z,9.60
2019-01-06T14:11:05.769Z,6.30
2019-01-06T14:13:52.289Z,8.70
2019-01-06T14:16:53.425Z,15.80
2019-01-06T14:19:45.765Z,7.93
2019-01-06T14:22:37.261Z,16.27
2019-01-06T14:25:27.067Z,20.93
2019-01-06T14:28:22.488Z,6.57
2019-01-06T14:31:10.020Z,13.17
2019-01-06T14:33:56.915Z,6.17
2019-01-06T14:36:42.876Z,5.50
2019-01-06T14:39:30.258Z,4.87
2019-01-06T14:42:20.407Z,4.63
2019-01-06T14:45:26.905Z,4.33
2019-01-06T14:48:11.374Z,4.93
2019-01-06T14:51:02.088Z,4.30
2019-01-06T14:53:59.065Z,3.63
2019-01-06T14:56:45.942Z,5.73
2019-01-06T14:59:32.851Z,5.23
2019-01-06T15:02:18.144Z,5.90
2019-01-06T15:05:15.669Z,5.23
2019-01-06T15:08:02.341Z,5.87
2019-01-06T15:10:48.845Z,5.50
2019-01-06T15:13:34.481Z,8.20
2019-01-06T15:16:21.655Z,9.00
2019-01-06T15:19:15.583Z,7.90
2019-01-06T15:22:21.826Z,12.10
2019-01-06T15:25:08.649Z,7.27
2019-01-06T15:27:55.540Z,8.27
2019-01-06T15:30:56.641Z,12.17
2019-01-06T15:33:43.417Z,14.50
2019-01-06T15:36:30.567Z,17.10
2019-01-06T15:39:21.593Z,10.23
2019-01-06T15:42:18.728Z,10.50
2019-01-06T15:45:07.757Z,13.43
2019-01-06T15:47:54.404Z,11.10
2019-01-06T15:50:39.028Z,25.13
2019-01-06T15:53:24.430Z,13.50
2019-01-06T15:56:11.146Z,12.73
2019-01-06T15:58:57.996Z,12.20
2019-01-06T16:01:46.331Z,12.43
2019-01-06T16:04:33.265Z,11.50
2019-01-06T16:07:27.753Z,13.63
2019-01-06T16:10:15.599Z,10.80
2019-01-06T16:13:12.200Z,12.30
2019-01-06T16:16:00.049Z,13.77
2019-01-06T16:19:03.584Z,14.00
2019-01-06T16:22:03.032Z,13.50
2019-01-06T16:25:06.784Z,12.70
2019-01-06T16:28:09.937Z,12.80
2019-01-06T16:30:54.028Z,12.50
2019-01-06T16:33:42.280Z,18.67
2019-01-06T16:36:25.508Z,14.33
2019-01-06T16:39:22.885Z,17.43
2019-01-06T16:42:01.612Z,17.43
2019-01-06T16:44:48.673Z,13.70
2019-01-06T16:47:39.756Z,11.50
2019-01-06T16:50:37.212Z,16.40
2019-01-06T16:53:37.302Z,12.30
2019-01-06T16:56:35.141Z,11.43
2019-01-06T16:59:31.463Z,15.73
2019-01-06T17:02:18.169Z,12.07
2019-01-06T17:05:05.128Z,17.30
2019-01-06T17:07:52.059Z,14.47
2019-01-06T17:10:40.121Z,15.83
2019-01-06T17:13:23.680Z,15.37
2019-01-06T17:16:11.654Z,18.60
2019-01-06T17:19:00.688Z,16.03
2019-01-06T17:21:57.201Z,20.33
2019-01-06T17:24:45.363Z,15.20
2019-01-06T17:27:31.825Z,22.97
2019-01-06T17:30:18.484Z,13.03
2019-01-06T17:33:05.254Z,22.43
2019-01-06T17:35:42.518Z,24.30
2019-01-06T17:38:29.013Z,22.63
2019-01-06T17:41:32.840Z,20.17
2019-01-06T17:44:27.900Z,26.23
2019-01-06T17:47:27.785Z,19.23
2019-01-06T17:50:14.829Z,22.30
2019-01-06T17:53:01.662Z,18.87
2019-01-06T17:55:43.496Z,18.90
2019-01-06T17:58:30.015Z,24.60
2019-01-06T18:01:14.856Z,20.23
2019-01-06T18:04:01.912Z,20.87
2019-01-06T18:06:48.716Z,24.03
2019-01-06T18:09:34.914Z,19.97
2019-01-06T18:12:21.517Z,23.10
2019-01-06T18:15:08.576Z,23.43
2019-01-06T18:18:08.816Z,21.90
2019-01-06T18:20:55.264Z,18.70
2019-01-06T18:23:46.005Z,16.43
2019-01-06T18:26:37.086Z,16.67
2019-01-06T18:29:34.294Z,16.53
2019-01-06T18:32:16.882Z,16.40
2019-01-06T18:35:03.463Z,22.43
2019-01-06T18:37:50.462Z,23.77
2019-01-06T18:40:37.417Z,17.63
2019-01-06T18:43:31.886Z,27.13
2019-01-06T18:46:20.800Z,30.83
2019-01-06T18:49:08.869Z,25.63
2019-01-06T18:51:59.509Z,26.67
2019-01-06T18:54:46.379Z,24.50
2019-01-06T18:57:33.327Z,19.83
2019-01-06T19:00:19.008Z,18.90
2019-01-06T19:03:07.136Z,20.37
2019-01-06T19:06:01.139Z,19.40
2019-01-06T19:08:48.242Z,19.47
2019-01-06T19:11:34.841Z,21.90
2019-01-06T19:14:23.006Z,17.80
2019-01-06T19:17:09.660Z,22.40
2019-01-06T19:20:01.322Z,16.43
2019-01-06T19:22:48.041Z,18.70
2019-01-06T19:25:42.545Z,18.53
2019-01-06T19:28:30.363Z,18.30
2019-01-06T19:31:23.217Z,14.87
2019-01-06T19:34:29.832Z,21.37
2019-01-06T19:37:13.737Z,21.33
2019-01-06T19:40:14.127Z,18.83
2019-01-06T19:43:01.046Z,15.30
2019-01-06T19:45:48.152Z,16.40
2019-01-06T19:48:45.745Z,16.43
2019-01-06T19:51:32.419Z,15.43
2019-01-06T19:54:20.565Z,20.47
2019-01-06T19:57:07.480Z,14.50
2019-01-06T20:00:00.851Z,18.90
2019-01-06T20:03:06.965Z,16.03
2019-01-06T20:06:03.225Z,18.90
2019-01-06T20:09:06.045Z,22.03
2019-01-06T20:11:52.600Z,16.37
2019-01-06T20:14:40.215Z,15.57
2019-01-06T20:17:28.080Z,20.57
2019-01-06T20:20:15.360Z,20.87
2019-01-06T20:23:02.424Z,23.13
2019-01-06T20:25:50.633Z,18.40
2019-01-06T20:28:37.563Z,17.97
2019-01-06T20:31:24.305Z,24.13
2019-01-06T20:34:11.172Z,17.20
2019-01-06T20:36:58.498Z,20.87
2019-01-06T20:40:01.638Z,23.33
2019-01-06T20:42:49.645Z,23.43
2019-01-06T20:45:56.089Z,25.00
2019-01-06T20:48:40.934Z,17.53
2019-01-06T20:51:27.758Z,18.73
2019-01-06T20:54:15.664Z,22.97
2019-01-06T20:57:17.582Z,28.30
2019-01-06T21:00:04.313Z,29.27
2019-01-06T21:02:51.186Z,46.83
2019-01-06T21:05:29.804Z,23.93
2019-01-06T21:08:23.838Z,52.10
2019-01-06T21:11:20.948Z,26.20
2019-01-06T21:14:14.279Z,24.23
2019-01-06T21:17:01.237Z,18.77
2019-01-06T21:19:48.063Z,18.30
2019-01-06T21:22:45.252Z,19.50
2019-01-06T21:25:39.005Z,25.73
2019-01-06T21:28:42.267Z,17.10
2019-01-06T21:31:29.198Z,15.37
2019-01-06T21:34:12.104Z,16.47
2019-01-06T21:37:10.572Z,17.80
2019-01-06T21:39:56.954Z,20.33
2019-01-06T21:42:43.889Z,16.20
2019-01-06T21:45:30.523Z,14.70
2019-01-06T21:48:18.385Z,17.77
2019-01-06T21:51:03.177Z,14.30
2019-01-06T21:53:50.310Z,19.10
2019-01-06T21:56:37.715Z,16.83
2019-01-06T21:59:41.241Z,18.90
2019-01-06T22:02:27.050Z,16.73
2019-01-06T22:05:10.959Z,18.33
2019-01-06T22:07:58.133Z,18.37
2019-01-06T22:11:01.340Z,15.50
2019-01-06T22:13:48.354Z,14.60
2019-01-06T22:16:31.055Z,18.20
2019-01-06T22:19:13.704Z,14.90
2019-01-06T22:22:00.669Z,24.80
2019-01-06T22:24:54.745Z,14.33
2019-01-06T22:27:44.420Z,18.20
2019-01-06T22:30:41.731Z,19.23
2019-01-06T22:33:29.813Z,15.13
2019-01-06T22:36:21.937Z,18.03
2019-01-06T22:39:05.705Z,18.73
2019-01-06T22:42:10.201Z,17.53
2019-01-06T22:44:56.992Z,23.40
2019-01-06T22:47:59.801Z,29.53
2019-01-06T22:50:57.405Z,22.17
2019-01-06T22:53:44.766Z,24.70
2019-01-06T22:56:28.936Z,24.40
2019-01-06T22:59:15.945Z,24.53
2019-01-06T23:02:16.839Z,24.47
2019-01-06T23:05:03.894Z,23.90
2019-01-06T23:08:10.212Z,26.57
2019-01-06T23:11:00.066Z,26.87
2019-01-06T23:13:44.864Z,25.33
2019-01-06T23:16:31.357Z,27.50
2019-01-06T23:19:28.892Z,28.97
2019-01-06T23:22:32.062Z,26.27
2019-01-06T23:25:18.784Z,26.07
2019-01-06T23:28:25.492Z,26.87
2019-01-06T23:31:22.525Z,25.57
2019-01-06T23:34:17.761Z,31.03
2019-01-06T23:37:17.857Z,28.93
2019-01-06T23:40:06.866Z,26.63
2019-01-06T23:42:54.072Z,33.77
2019-01-06T23:45:36.996Z,33.57
2019-01-06T23:48:24.008Z,24.50
2019-01-06T23:51:06.493Z,26.00
2019-01-06T23:53:49.424Z,26.67
2019-01-06T23:56:47.389Z,26.33
2019-01-06T23:59:34.302Z,26.47
